createdAt,value
2018-01-14T00:00:22.084Z,12.23
2018-01-14T00:02:48.329Z,14.32
2018-01-14T00:05:14.621Z,13.10
2018-01-14T00:07:40.895Z,13.65
2018-01-14T00:10:07.158Z,13.18
2018-01-14T00:12:33.380Z,13.48
2018-01-14T00:14:59.659Z,13.95
2018-01-14T00:17:26.641Z,13.48
2018-01-14T00:19:52.947Z,13.27
2018-01-14T00:22:19.952Z,13.62
2018-01-14T00:24:46.224Z,12.37
2018-01-14T00:27:12.466Z,13.30
2018-01-14T00:29:38.698Z,13.02
2018-01-14T00:32:04.940Z,12.10
2018-01-14T00:34:31.185Z,13.00
2018-01-14T00:36:57.453Z,12.52
2018-01-14T00:39:24.433Z,14.05
2018-01-14T00:41:50.749Z,13.35
2018-01-14T00:44:17.741Z,12.57
2018-01-14T00:46:43.955Z,12.85
2018-01-14T00:49:10.903Z,13.50
2018-01-14T00:51:37.923Z,13.45
2018-01-14T00:54:04.137Z,12.07
2018-01-14T00:56:30.401Z,13.07
2018-01-14T00:58:56.658Z,13.73
2018-01-14T01:01:22.917Z,12.93
2018-01-14T01:03:49.172Z,14.52
2018-01-14T01:06:15.410Z,14.40
2018-01-14T01:08:42.675Z,13.18
2018-01-14T01:11:09.646Z,13.20
2018-01-14T01:13:35.868Z,12.93
2018-01-14T01:16:02.867Z,14.00
2018-01-14T01:18:29.079Z,13.20
2018-01-14T01:20:56.143Z,15.70
2018-01-14T01:23:23.040Z,15.48
2018-01-14T01:25:49.303Z,14.38
2018-01-14T01:28:16.624Z,14.90
2018-01-14T01:30:42.857Z,13.30
2018-01-14T01:33:09.118Z,12.90
2018-01-14T01:35:35.383Z,13.85
2018-01-14T01:38:01.624Z,14.95
2018-01-14T01:40:27.879Z,13.73
2018-01-14T01:42:54.096Z,15.68
2018-01-14T01:45:20.349Z,13.43
2018-01-14T01:47:46.594Z,14.30
2018-01-14T01:50:13.127Z,15.63
2018-01-14T01:52:39.387Z,14.20
2018-01-14T01:55:05.644Z,14.50
2018-01-14T01:57:32.655Z,13.70
2018-01-14T01:59:58.899Z,16.37
2018-01-14T02:02:25.171Z,14.65
2018-01-14T02:04:51.429Z,14.52
2018-01-14T02:07:18.382Z,14.48
2018-01-14T02:09:45.379Z,14.70
2018-01-14T02:12:11.586Z,15.73
2018-01-14T02:14:38.588Z,15.13
2018-01-14T02:17:04.815Z,15.25
2018-01-14T02:19:31.114Z,16.62
2018-01-14T02:21:58.138Z,13.98
2018-01-14T02:24:24.353Z,14.07
2018-01-14T02:26:50.589Z,15.73
2018-01-14T02:29:16.824Z,16.10
2018-01-14T02:31:43.333Z,15.18
2018-01-14T02:34:09.562Z,15.90
2018-01-14T02:36:35.796Z,14.65
2018-01-14T02:39:02.115Z,15.18
2018-01-14T02:41:28.347Z,18.12
2018-01-14T02:43:54.586Z,13.40
2018-01-14T02:46:20.816Z,13.90
2018-01-14T02:48:47.095Z,14.60
2018-01-14T02:51:13.333Z,15.38
2018-01-14T02:53:39.554Z,14.85
2018-01-14T02:56:05.813Z,14.30
2018-01-14T02:58:32.044Z,13.62
2018-01-14T03:00:58.302Z,14.63
2018-01-14T03:03:24.539Z,15.70
2018-01-14T03:05:51.077Z,15.65
2018-01-14T03:08:17.284Z,13.95
2018-01-14T03:10:43.540Z,15.43
2018-01-14T03:13:09.787Z,14.60
2018-01-14T03:15:36.024Z,14.87
2018-01-14T03:18:02.300Z,14.48
2018-01-14T03:20:28.654Z,17.00
2018-01-14T03:22:54.919Z,13.30
2018-01-14T03:25:21.898Z,15.13
2018-01-14T03:27:48.266Z,15.38
2018-01-14T03:30:14.515Z,14.02
2018-01-14T03:32:40.783Z,14.25
2018-01-14T03:35:07.016Z,14.82
2018-01-14T03:37:33.243Z,14.93
2018-01-14T03:39:59.510Z,14.93
2018-01-14T03:42:26.462Z,14.60
2018-01-14T03:44:52.694Z,14.27
2018-01-14T03:47:18.943Z,15.60
2018-01-14T03:49:45.924Z,13.52
2018-01-14T03:52:12.192Z,13.43
2018-01-14T03:54:38.428Z,12.55
2018-01-14T03:57:04.678Z,13.95
2018-01-14T03:59:30.922Z,13.70
2018-01-14T04:01:57.146Z,14.50
2018-01-14T04:04:24.182Z,14.57
2018-01-14T04:06:51.159Z,13.93
2018-01-14T04:09:17.684Z,13.02
2018-01-14T04:11:44.671Z,13.13
2018-01-14T04:14:10.925Z,15.98
2018-01-14T04:16:37.173Z,13.85
2018-01-14T04:19:03.533Z,13.32
2018-01-14T04:21:29.767Z,14.25
2018-01-14T04:23:55.986Z,12.02
2018-01-14T04:26:22.479Z,12.77
2018-01-14T04:28:48.727Z,12.05
2018-01-14T04:31:15.697Z,14.52
2018-01-14T04:33:41.938Z,13.65
2018-01-14T04:36:08.910Z,14.82
2018-01-14T04:38:35.164Z,14.05
2018-01-14T04:41:01.406Z,13.30
2018-01-14T04:43:27.648Z,13.13
2018-01-14T04:45:53.895Z,13.98
2018-01-14T04:48:20.121Z,13.30
2018-01-14T04:50:46.636Z,12.82
2018-01-14T04:53:13.616Z,13.80
2018-01-14T04:55:39.878Z,13.60
2018-01-14T04:58:06.140Z,15.20
2018-01-14T05:00:32.390Z,13.10
2018-01-14T05:02:58.688Z,14.00
2018-01-14T05:05:24.950Z,13.52
2018-01-14T05:07:51.204Z,13.90
2018-01-14T05:10:17.466Z,13.10
2018-01-14T05:12:43.692Z,13.10
2018-01-14T05:15:09.951Z,11.45
2018-01-14T05:17:36.910Z,11.85
2018-01-14T05:20:03.999Z,11.80
2018-01-14T05:22:30.220Z,13.25
2018-01-14T05:24:57.198Z,12.82
2018-01-14T05:27:23.491Z,11.80
2018-01-14T05:29:49.729Z,12.37
2018-01-14T05:32:16.264Z,11.88
2018-01-14T05:34:42.525Z,13.80
2018-01-14T05:37:08.755Z,11.23
2018-01-14T05:39:35.004Z,13.27
2018-01-14T05:42:01.247Z,13.00
2018-01-14T05:44:27.521Z,13.73
2018-01-14T05:46:53.754Z,12.68
2018-01-14T05:49:19.991Z,12.25
2018-01-14T05:51:47.001Z,10.98
2018-01-14T05:54:13.270Z,10.68
2018-01-14T05:56:39.573Z,10.07
2018-01-14T05:59:12.761Z,9.88
2018-01-14T06:01:38.992Z,10.32
2018-01-14T06:04:05.265Z,10.80
2018-01-14T06:06:31.510Z,10.80
2018-01-14T06:08:57.748Z,11.50
2018-01-14T06:11:24.001Z,11.95
2018-01-14T06:13:50.253Z,11.07
2018-01-14T06:16:16.486Z,11.65
2018-01-14T06:18:42.744Z,10.45
2018-01-14T06:21:09.078Z,11.10
2018-01-14T06:23:35.312Z,11.98
2018-01-14T06:26:01.570Z,12.95
2018-01-14T06:28:27.817Z,11.27
2018-01-14T06:30:54.827Z,12.23
2018-01-14T06:33:21.067Z,12.32
2018-01-14T06:35:47.335Z,12.85
2018-01-14T06:38:13.571Z,12.80
2018-01-14T06:40:39.810Z,13.27
2018-01-14T06:43:06.052Z,12.90
2018-01-14T06:45:32.267Z,14.32
2018-01-14T06:47:58.523Z,12.82
2018-01-14T06:50:24.740Z,12.88
2018-01-14T06:52:51.014Z,11.90
2018-01-14T06:55:17.264Z,15.07
2018-01-14T06:57:43.527Z,14.65
2018-01-14T07:00:10.542Z,13.32
2018-01-14T07:02:36.796Z,12.73
2018-01-14T07:05:03.337Z,13.02
2018-01-14T07:07:29.564Z,14.90
2018-01-14T07:09:55.790Z,16.17
2018-01-14T07:12:22.046Z,13.90
2018-01-14T07:14:48.267Z,12.82
2018-01-14T07:17:14.503Z,10.27
2018-01-14T07:19:40.818Z,12.90
2018-01-14T07:22:07.076Z,12.37
2018-01-14T07:24:33.318Z,13.07
2018-01-14T07:26:59.552Z,13.25
2018-01-14T07:29:25.819Z,14.00
2018-01-14T07:31:52.076Z,12.93
2018-01-14T07:34:18.338Z,13.13
2018-01-14T07:36:44.566Z,14.73
2018-01-14T07:39:10.795Z,15.77
2018-01-14T07:41:37.056Z,13.20
2018-01-14T07:44:03.283Z,15.35
2018-01-14T07:46:29.546Z,14.50
2018-01-14T07:48:55.766Z,14.27
2018-01-14T07:51:22.008Z,13.10
2018-01-14T07:53:48.244Z,11.82
2018-01-14T07:56:14.537Z,13.40
2018-01-14T07:58:40.797Z,11.75
2018-01-14T08:01:07.046Z,17.35
2018-01-14T08:03:33.292Z,14.05
2018-01-14T08:05:59.550Z,12.80
2018-01-14T08:08:25.806Z,12.55
2018-01-14T08:10:52.305Z,12.90
2018-01-14T08:13:18.535Z,11.00
2018-01-14T08:15:44.784Z,11.68
2018-01-14T08:18:11.028Z,11.70
2018-01-14T08:20:37.343Z,12.63
2018-01-14T08:23:04.326Z,11.60
2018-01-14T08:25:30.619Z,12.82
2018-01-14T08:27:56.871Z,12.95
2018-01-14T08:30:23.173Z,13.45
2018-01-14T08:32:49.431Z,13.68
2018-01-14T08:35:15.666Z,14.87
2018-01-14T08:37:41.901Z,13.52
2018-01-14T08:40:08.170Z,12.20
2018-01-14T08:42:34.409Z,12.32
2018-01-14T08:45:00.685Z,14.43
2018-01-14T08:47:26.939Z,15.73
2018-01-14T08:49:53.173Z,14.95
2018-01-14T08:52:19.436Z,14.27
2018-01-14T08:54:45.669Z,14.07
2018-01-14T08:57:11.938Z,16.33
2018-01-14T08:59:38.185Z,14.85
2018-01-14T09:02:04.426Z,15.98
2018-01-14T09:04:30.676Z,13.50
2018-01-14T09:06:56.942Z,12.43
2018-01-14T09:09:23.927Z,13.20
2018-01-14T09:11:50.181Z,12.88
2018-01-14T09:14:16.437Z,14.38
2018-01-14T09:16:42.711Z,13.57
2018-01-14T09:19:09.682Z,12.50
2018-01-14T09:21:37.018Z,14.00
2018-01-14T09:24:03.294Z,12.60
2018-01-14T09:26:29.566Z,14.85
2018-01-14T09:28:55.827Z,14.20
2018-01-14T09:31:22.065Z,13.20
2018-01-14T09:33:48.337Z,12.82
2018-01-14T09:36:15.350Z,14.00
2018-01-14T09:38:41.616Z,12.90
2018-01-14T09:41:07.861Z,12.75
2018-01-14T09:43:34.093Z,12.50
2018-01-14T09:46:00.346Z,11.45
2018-01-14T09:48:26.615Z,13.25
2018-01-14T09:50:52.932Z,11.95
2018-01-14T09:53:19.161Z,11.65
2018-01-14T09:55:45.414Z,13.27
2018-01-14T09:58:11.700Z,13.62
2018-01-14T10:00:37.925Z,12.70
2018-01-14T10:03:04.158Z,13.35
2018-01-14T10:05:31.139Z,12.50
2018-01-14T10:07:57.416Z,12.32
2018-01-14T10:10:23.663Z,11.77
2018-01-14T10:12:50.048Z,12.40
2018-01-14T10:15:17.082Z,12.20
2018-01-14T10:17:44.083Z,13.50
2018-01-14T10:20:10.428Z,12.95
2018-01-14T10:22:36.654Z,15.10
2018-01-14T10:25:02.906Z,17.48
2018-01-14T10:27:29.197Z,15.23
2018-01-14T10:29:55.447Z,12.85
2018-01-14T10:32:21.721Z,16.90
2018-01-14T10:34:47.964Z,24.87
2018-01-14T10:37:14.230Z,19.17
2018-01-14T10:39:40.492Z,12.35
2018-01-14T10:42:06.791Z,10.23
2018-01-14T10:44:33.066Z,10.38
2018-01-14T10:46:59.356Z,9.68
2018-01-14T10:49:26.379Z,10.90
2018-01-14T10:51:52.647Z,9.88
2018-01-14T10:54:19.661Z,11.12
2018-01-14T10:56:45.959Z,10.70
2018-01-14T10:59:12.955Z,11.65
2018-01-14T11:01:39.276Z,11.23
2018-01-14T11:04:05.576Z,11.18
2018-01-14T11:06:31.871Z,10.88
2018-01-14T11:08:58.170Z,10.90
2018-01-14T11:11:24.484Z,10.45
2018-01-14T11:13:50.853Z,9.55
2018-01-14T11:16:17.294Z,10.35
2018-01-14T11:18:43.599Z,11.15
2018-01-14T11:21:09.934Z,12.20
2018-01-14T11:23:36.330Z,10.68
2018-01-14T11:26:03.374Z,10.40
2018-01-14T11:28:37.573Z,12.07
2018-01-14T11:31:03.841Z,10.80
2018-01-14T11:33:30.126Z,10.25
2018-01-14T11:35:56.417Z,11.25
2018-01-14T11:38:22.681Z,10.32
2018-01-14T11:40:48.979Z,10.15
2018-01-14T11:43:15.285Z,10.63
2018-01-14T11:45:41.564Z,11.23
2018-01-14T11:48:07.848Z,11.45
2018-01-14T11:50:34.889Z,14.60
2018-01-14T11:53:01.200Z,13.93
2018-01-14T11:55:27.449Z,13.00
2018-01-14T11:57:53.751Z,11.00
2018-01-14T12:00:20.105Z,8.50
2018-01-14T12:02:46.449Z,7.32
2018-01-14T12:05:12.848Z,7.53
2018-01-14T12:07:39.860Z,7.85
2018-01-14T12:10:06.307Z,8.23
2018-01-14T12:12:32.769Z,8.57
2018-01-14T12:14:59.239Z,9.50
2018-01-14T12:17:25.575Z,8.68
2018-01-14T12:19:52.035Z,8.20
2018-01-14T12:22:18.315Z,8.93
2018-01-14T12:24:44.573Z,8.63
2018-01-14T12:27:10.896Z,7.25
2018-01-14T12:29:37.185Z,8.05
2018-01-14T12:32:03.482Z,8.45
2018-01-14T12:34:39.761Z,8.43
2018-01-14T12:37:06.044Z,7.30
2018-01-14T12:39:32.413Z,8.80
2018-01-14T12:41:59.488Z,9.98
2018-01-14T12:44:26.491Z,10.75
2018-01-14T12:46:52.811Z,9.82
2018-01-14T12:49:19.139Z,9.60
2018-01-14T12:51:45.422Z,9.98
2018-01-14T12:54:11.728Z,10.10
2018-01-14T12:56:38.011Z,8.65
2018-01-14T12:59:04.331Z,9.63
2018-01-14T13:01:30.610Z,9.75
2018-01-14T13:03:56.891Z,11.00
2018-01-14T13:06:23.189Z,10.88
2018-01-14T13:08:49.499Z,11.60
2018-01-14T13:11:15.809Z,9.23
2018-01-14T13:13:42.095Z,10.50
2018-01-14T13:16:08.403Z,10.18
2018-01-14T13:18:34.725Z,16.75
2018-01-14T13:21:01.115Z,8.27
2018-01-14T13:23:27.441Z,8.30
2018-01-14T13:25:53.755Z,8.98
2018-01-14T13:28:20.861Z,9.45
2018-01-14T13:30:47.207Z,8.95
2018-01-14T13:33:13.522Z,8.35
2018-01-14T13:35:39.880Z,8.75
2018-01-14T13:38:06.184Z,8.50
2018-01-14T13:40:33.256Z,8.52
2018-01-14T13:42:59.828Z,8.75
2018-01-14T13:45:26.161Z,10.00
2018-01-14T13:47:52.562Z,9.43
2018-01-14T13:50:18.871Z,8.68
2018-01-14T13:52:45.217Z,8.90
2018-01-14T13:55:11.512Z,9.77
2018-01-14T13:57:37.799Z,8.98
2018-01-14T14:00:04.166Z,10.35
2018-01-14T14:02:30.505Z,12.23
2018-01-14T14:04:56.987Z,10.05
2018-01-14T14:07:23.329Z,8.75
2018-01-14T14:09:49.882Z,9.75
2018-01-14T14:12:16.940Z,9.85
2018-01-14T14:14:49.996Z,8.45
2018-01-14T14:17:16.306Z,8.10
2018-01-14T14:19:42.674Z,8.63
2018-01-14T14:22:09.823Z,9.00
2018-01-14T14:24:36.144Z,9.23
2018-01-14T14:27:02.474Z,8.40
2018-01-14T14:29:29.561Z,8.57
2018-01-14T14:31:56.180Z,9.70
2018-01-14T14:34:22.542Z,8.73
2018-01-14T14:36:48.876Z,8.40
2018-01-14T14:39:15.246Z,10.02
2018-01-14T14:41:41.597Z,9.45
2018-01-14T14:44:07.989Z,13.48
2018-01-14T14:46:35.067Z,10.95
2018-01-14T14:49:01.414Z,9.35
2018-01-14T14:51:27.746Z,8.98
2018-01-14T14:53:54.055Z,8.93
2018-01-14T14:56:20.407Z,8.65
2018-01-14T14:58:46.724Z,9.18
2018-01-14T15:01:13.041Z,9.95
2018-01-14T15:03:39.359Z,8.18
2018-01-14T15:06:05.662Z,8.70
2018-01-14T15:08:32.002Z,10.82
2018-01-14T15:10:58.335Z,10.98
2018-01-14T15:13:24.671Z,11.38
2018-01-14T15:15:51.023Z,10.88
2018-01-14T15:18:17.560Z,10.23
2018-01-14T15:20:43.959Z,9.35
2018-01-14T15:23:10.304Z,10.75
2018-01-14T15:25:36.965Z,9.68
2018-01-14T15:28:03.579Z,11.80
2018-01-14T15:30:30.134Z,10.60
2018-01-14T15:32:57.261Z,10.05
2018-01-14T15:35:23.625Z,10.55
2018-01-14T15:37:50.036Z,11.57
2018-01-14T15:40:16.412Z,11.90
2018-01-14T15:42:42.802Z,12.52
2018-01-14T15:45:09.126Z,11.40
2018-01-14T15:47:35.462Z,18.33
2018-01-14T15:50:02.550Z,15.10
2018-01-14T15:52:28.869Z,13.38
2018-01-14T15:54:55.969Z,13.40
2018-01-14T15:57:22.409Z,11.55
2018-01-14T15:59:48.788Z,12.20
2018-01-14T16:02:15.149Z,14.40
2018-01-14T16:04:41.485Z,14.75
2018-01-14T16:07:07.831Z,38.85
2018-01-14T16:09:34.936Z,25.45
2018-01-14T16:12:01.273Z,22.60
2018-01-14T16:14:27.661Z,17.30
2018-01-14T16:16:54.299Z,33.10
2018-01-14T16:19:20.654Z,16.60
2018-01-14T16:21:47.013Z,75.15
2018-01-14T16:24:13.369Z,84.15
2018-01-14T16:26:40.458Z,17.65
2018-01-14T16:29:06.844Z,17.37
2018-01-14T16:31:33.177Z,27.05
2018-01-14T16:33:59.512Z,23.60
2018-01-14T16:36:25.912Z,25.15
2018-01-14T16:38:53.002Z,23.00
2018-01-14T16:41:19.395Z,19.95
2018-01-14T16:43:45.722Z,31.45
2018-01-14T16:46:12.070Z,18.60
2018-01-14T16:48:38.447Z,20.05
2018-01-14T16:51:05.581Z,17.08
2018-01-14T16:53:32.213Z,15.93
2018-01-14T16:55:58.548Z,16.80
2018-01-14T16:58:25.277Z,15.10
2018-01-14T17:00:52.265Z,15.43
2018-01-14T17:03:18.857Z,13.90
2018-01-14T17:05:45.218Z,18.25
2018-01-14T17:08:11.571Z,15.48
2018-01-14T17:10:38.168Z,14.90
2018-01-14T17:13:05.644Z,16.02
2018-01-14T17:15:32.016Z,16.00
2018-01-14T17:17:58.310Z,14.57
2018-01-14T17:20:24.722Z,14.50
2018-01-14T17:22:51.076Z,14.27
2018-01-14T17:25:17.459Z,14.57
2018-01-14T17:27:44.610Z,13.57
2018-01-14T17:30:10.941Z,13.62
2018-01-14T17:32:38.027Z,13.60
2018-01-14T17:35:04.354Z,15.18
2018-01-14T17:37:30.936Z,16.75
2018-01-14T17:39:58.002Z,13.82
2018-01-14T17:42:25.173Z,16.40
2018-01-14T17:44:51.487Z,14.48
2018-01-14T17:47:17.820Z,14.15
2018-01-14T17:49:44.202Z,17.92
2018-01-14T17:52:10.511Z,16.25
2018-01-14T17:54:37.134Z,14.93
2018-01-14T17:57:03.908Z,15.57
2018-01-14T17:59:30.267Z,17.05
2018-01-14T18:01:58.018Z,16.85
2018-01-14T18:04:24.373Z,15.60
2018-01-14T18:06:50.783Z,17.60
2018-01-14T18:09:17.138Z,18.50
2018-01-14T18:11:43.524Z,23.15
2018-01-14T18:14:10.065Z,19.12
2018-01-14T18:16:37.072Z,17.00
2018-01-14T18:19:03.481Z,15.30
2018-01-14T18:21:29.917Z,15.73
2018-01-14T18:23:57.023Z,16.90
2018-01-14T18:26:23.399Z,17.42
2018-01-14T18:28:49.788Z,17.85
2018-01-14T18:31:16.200Z,16.83
2018-01-14T18:33:43.366Z,17.37
2018-01-14T18:36:09.722Z,13.55
2018-01-14T18:38:36.773Z,16.58
2018-01-14T18:41:03.852Z,14.45
2018-01-14T18:43:30.194Z,15.10
2018-01-14T18:46:06.508Z,14.80
2018-01-14T18:48:32.890Z,15.15
2018-01-14T18:51:00.059Z,14.55
2018-01-14T18:53:27.225Z,15.90
2018-01-14T18:55:54.318Z,17.65
2018-01-14T18:58:20.721Z,15.40
2018-01-14T19:00:47.796Z,14.77
2018-01-14T19:03:14.892Z,14.15
2018-01-14T19:05:41.282Z,15.43
2018-01-14T19:08:08.505Z,14.95
2018-01-14T19:10:34.870Z,19.67
2018-01-14T19:13:01.213Z,25.08
2018-01-14T19:15:27.585Z,21.42
2018-01-14T19:17:54.663Z,19.15
2018-01-14T19:20:21.120Z,19.65
2018-01-14T19:22:47.507Z,16.92
2018-01-14T19:25:14.171Z,36.10
2018-01-14T19:27:40.525Z,24.20
2018-01-14T19:30:07.617Z,34.15
2018-01-14T19:32:33.986Z,29.60
2018-01-14T19:35:00.371Z,18.67
2018-01-14T19:37:27.523Z,17.75
2018-01-14T19:39:53.920Z,16.87
2018-01-14T19:42:20.339Z,17.05
2018-01-14T19:44:46.731Z,16.25
2018-01-14T19:47:13.165Z,19.92
2018-01-14T19:49:40.405Z,15.95
2018-01-14T19:52:06.777Z,15.82
2018-01-14T19:54:33.174Z,20.35
2018-01-14T19:57:00.235Z,18.08
2018-01-14T19:59:27.358Z,20.33
2018-01-14T20:01:54.015Z,20.05
2018-01-14T20:04:20.365Z,20.10
2018-01-14T20:06:46.766Z,19.17
2018-01-14T20:09:13.126Z,19.17
2018-01-14T20:11:39.492Z,17.02
2018-01-14T20:14:05.836Z,15.50
2018-01-14T20:16:32.196Z,15.25
2018-01-14T20:18:58.599Z,16.48
2018-01-14T20:21:25.027Z,15.70
2018-01-14T20:23:51.375Z,16.30
2018-01-14T20:26:17.789Z,17.25
2018-01-14T20:28:44.136Z,15.15
2018-01-14T20:31:10.562Z,15.23
2018-01-14T20:33:37.698Z,16.95
2018-01-14T20:36:04.056Z,15.80
2018-01-14T20:38:30.403Z,16.17
2018-01-14T20:40:57.484Z,17.70
2018-01-14T20:43:23.865Z,15.40
2018-01-14T20:45:50.197Z,16.60
2018-01-14T20:48:16.564Z,16.40
2018-01-14T20:50:42.914Z,16.37
2018-01-14T20:53:09.231Z,21.75
2018-01-14T20:55:35.612Z,25.08
2018-01-14T20:58:02.022Z,23.38
2018-01-14T21:00:28.980Z,21.55
2018-01-14T21:02:56.273Z,19.08
2018-01-14T21:05:23.494Z,15.57
2018-01-14T21:07:49.860Z,17.45
2018-01-14T21:10:16.238Z,17.65
2018-01-14T21:12:43.310Z,23.30
2018-01-14T21:15:10.450Z,22.60
2018-01-14T21:17:38.324Z,18.70
2018-01-14T21:20:04.806Z,14.85
2018-01-14T21:22:31.881Z,13.95
2018-01-14T21:24:58.175Z,16.80
2018-01-14T21:27:24.524Z,14.90
2018-01-14T21:29:50.911Z,17.08
2018-01-14T21:32:17.196Z,15.57
2018-01-14T21:34:43.561Z,16.85
2018-01-14T21:37:09.844Z,17.05
2018-01-14T21:39:36.461Z,16.12
2018-01-14T21:42:03.561Z,17.10
2018-01-14T21:44:29.868Z,16.33
2018-01-14T21:46:56.953Z,18.67
2018-01-14T21:49:23.286Z,15.60
2018-01-14T21:51:49.595Z,17.12
2018-01-14T21:54:15.924Z,15.82
2018-01-14T21:56:42.208Z,15.85
2018-01-14T21:59:08.537Z,15.13
2018-01-14T22:01:35.578Z,17.58
2018-01-14T22:04:01.893Z,15.90
2018-01-14T22:06:31.979Z,15.27
2018-01-14T22:08:58.982Z,14.70
2018-01-14T22:11:25.281Z,14.73
2018-01-14T22:13:51.559Z,16.30
2018-01-14T22:16:17.876Z,15.93
2018-01-14T22:18:44.169Z,15.73
2018-01-14T22:21:10.569Z,16.00
2018-01-14T22:23:36.802Z,14.95
2018-01-14T22:26:03.495Z,14.52
2018-01-14T22:28:29.748Z,16.50
2018-01-14T22:30:56.350Z,16.08
2018-01-14T22:33:23.428Z,16.10
2018-01-14T22:35:49.671Z,16.67
2018-01-14T22:38:15.972Z,16.33
2018-01-14T22:40:42.974Z,15.18
2018-01-14T22:43:09.251Z,15.40
2018-01-14T22:45:35.497Z,15.63
2018-01-14T22:48:01.717Z,16.85
2018-01-14T22:50:28.016Z,14.60
2018-01-14T22:52:54.267Z,17.75
2018-01-14T22:55:20.871Z,16.85
2018-01-14T22:57:47.666Z,15.68
2018-01-14T23:00:14.901Z,15.40
2018-01-14T23:02:41.883Z,16.12
2018-01-14T23:05:09.148Z,16.15
2018-01-14T23:07:36.336Z,16.45
2018-01-14T23:10:02.630Z,17.77
2018-01-14T23:12:30.123Z,16.75
2018-01-14T23:15:02.934Z,15.43
2018-01-14T23:17:29.174Z,15.30
2018-01-14T23:19:55.475Z,15.57
2018-01-14T23:22:23.133Z,14.23
2018-01-14T23:24:49.390Z,14.30
2018-01-14T23:27:16.628Z,14.10
2018-01-14T23:29:44.607Z,14.07
2018-01-14T23:32:10.950Z,14.20
2018-01-14T23:34:37.237Z,12.65
2018-01-14T23:37:03.486Z,14.75
2018-01-14T23:39:29.771Z,15.80
2018-01-14T23:41:55.998Z,17.10
2018-01-14T23:44:22.235Z,14.35
2018-01-14T23:46:48.780Z,14.07
2018-01-14T23:49:15.058Z,14.60
2018-01-14T23:51:42.056Z,13.70
2018-01-14T23:54:08.294Z,12.88
2018-01-14T23:56:34.517Z,13.93
2018-01-14T23:59:00.772Z,13.27
